createdAt,value
2023-05-21T00:01:16.156Z,100.00
2023-05-21T00:03:46.132Z,100.00
2023-05-21T00:06:13.818Z,100.00
2023-05-21T00:08:40.688Z,100.00
2023-05-21T00:11:07.510Z,100.00
2023-05-21T00:13:34.315Z,100.00
2023-05-21T00:16:01.517Z,100.00
2023-05-21T00:18:28.382Z,100.00
2023-05-21T00:20:55.122Z,100.00
2023-05-21T00:23:21.881Z,100.00
2023-05-21T00:25:50.464Z,100.00
2023-05-21T00:28:17.294Z,100.00
2023-05-21T00:30:44.341Z,100.00
2023-05-21T00:33:13.956Z,100.00
2023-05-21T00:35:41.119Z,100.00
2023-05-21T00:38:08.699Z,100.00
2023-05-21T00:40:36.421Z,100.00
2023-05-21T00:43:03.474Z,100.00
2023-05-21T00:45:30.293Z,100.00
2023-05-21T00:47:57.109Z,100.00
2023-05-21T00:50:24.354Z,100.00
2023-05-21T00:52:51.746Z,100.00
2023-05-21T00:55:18.452Z,100.00
2023-05-21T00:57:46.072Z,100.00
2023-05-21T01:00:14.653Z,100.00
2023-05-21T01:02:42.193Z,100.00
2023-05-21T01:05:09.651Z,100.00
2023-05-21T01:07:39.024Z,100.00
2023-05-21T01:10:07.715Z,100.00
2023-05-21T01:12:34.647Z,100.00
2023-05-21T01:15:05.622Z,100.00
2023-05-21T01:17:34.318Z,100.00
2023-05-21T01:20:01.618Z,100.00
2023-05-21T01:22:29.156Z,100.00
2023-05-21T01:24:55.982Z,100.00
2023-05-21T01:27:23.004Z,100.00
2023-05-21T01:29:49.823Z,100.00
2023-05-21T01:32:35.009Z,100.00
2023-05-21T01:35:07.961Z,100.00
2023-05-21T01:37:47.512Z,100.00
2023-05-21T01:40:30.272Z,100.00
2023-05-21T01:42:57.071Z,100.00
2023-05-21T01:45:24.292Z,100.00
2023-05-21T01:47:51.898Z,100.00
2023-05-21T01:50:18.831Z,100.00
2023-05-21T01:52:50.595Z,100.00
2023-05-21T01:55:17.644Z,100.00
2023-05-21T01:57:44.443Z,100.00
2023-05-21T02:00:12.140Z,100.00
2023-05-21T02:02:38.972Z,100.00
2023-05-21T02:05:06.585Z,100.00
2023-05-21T02:07:33.873Z,100.00
2023-05-21T02:10:00.689Z,100.00
2023-05-21T02:12:28.355Z,100.00
2023-05-21T02:14:56.384Z,100.00
2023-05-21T02:17:24.409Z,100.00
2023-05-21T02:19:51.326Z,100.00
2023-05-21T02:22:18.089Z,100.00
2023-05-21T02:24:45.474Z,100.00
2023-05-21T02:27:13.478Z,100.00
2023-05-21T02:29:40.311Z,100.00
2023-05-21T02:32:07.439Z,100.00
2023-05-21T02:34:35.081Z,100.00
2023-05-21T02:37:01.948Z,100.00
2023-05-21T02:39:28.749Z,100.00
2023-05-21T02:41:55.509Z,100.00
2023-05-21T02:44:24.124Z,100.00
2023-05-21T02:46:51.011Z,100.00
2023-05-21T02:49:17.787Z,100.00
2023-05-21T02:51:44.589Z,100.00
2023-05-21T02:54:11.426Z,100.00
2023-05-21T02:56:38.246Z,100.00
2023-05-21T02:59:05.024Z,100.00
2023-05-21T03:01:31.983Z,100.00
2023-05-21T03:03:58.807Z,100.00
2023-05-21T03:06:25.640Z,100.00
2023-05-21T03:08:52.470Z,100.00
2023-05-21T03:11:20.080Z,100.00
2023-05-21T03:13:46.874Z,100.00
2023-05-21T03:16:14.223Z,100.00
2023-05-21T03:18:41.083Z,100.00
2023-05-21T03:21:07.851Z,100.00
2023-05-21T03:23:34.966Z,100.00
2023-05-21T03:26:02.464Z,100.00
2023-05-21T03:28:29.240Z,100.00
2023-05-21T03:30:55.991Z,100.00
2023-05-21T03:33:23.029Z,100.00
2023-05-21T03:35:49.779Z,100.00
2023-05-21T03:38:16.585Z,100.00
2023-05-21T03:40:43.371Z,100.00
2023-05-21T03:43:10.139Z,100.00
2023-05-21T03:45:37.190Z,100.00
2023-05-21T03:48:04.513Z,100.00
2023-05-21T03:50:31.465Z,100.00
2023-05-21T03:52:58.191Z,100.00
2023-05-21T03:55:24.979Z,100.00
2023-05-21T03:57:51.733Z,100.00
2023-05-21T04:00:18.721Z,100.00
2023-05-21T04:02:45.513Z,100.00
2023-05-21T04:05:12.345Z,100.00
2023-05-21T04:07:39.762Z,100.00
2023-05-21T04:10:07.346Z,100.00
2023-05-21T04:12:34.107Z,100.00
2023-05-21T04:15:02.620Z,100.00
2023-05-21T04:17:29.470Z,100.00
2023-05-21T04:19:56.270Z,100.00
2023-05-21T04:22:23.449Z,99.76
2023-05-21T04:24:50.534Z,98.92
2023-05-21T04:27:17.263Z,98.02
2023-05-21T04:29:44.063Z,96.34
2023-05-21T04:32:11.696Z,95.08
2023-05-21T04:34:39.648Z,93.76
2023-05-21T04:37:06.959Z,93.40
2023-05-21T04:39:34.845Z,93.39
2023-05-21T04:42:03.204Z,92.52
2023-05-21T04:44:30.166Z,91.71
2023-05-21T04:46:57.677Z,91.04
2023-05-21T04:49:24.579Z,90.37
2023-05-21T04:51:51.336Z,89.05
2023-05-21T04:54:18.231Z,88.45
2023-05-21T04:56:44.999Z,87.39
2023-05-21T04:59:11.888Z,86.02
2023-05-21T05:01:38.678Z,85.76
2023-05-21T05:04:06.071Z,85.05
2023-05-21T05:06:32.883Z,84.66
2023-05-21T05:08:59.667Z,82.94
2023-05-21T05:11:26.863Z,82.49
2023-05-21T05:13:53.666Z,82.42
2023-05-21T05:16:25.572Z,80.81
2023-05-21T05:18:53.135Z,80.79
2023-05-21T05:21:21.944Z,79.15
2023-05-21T05:23:48.841Z,78.40
2023-05-21T05:26:16.023Z,78.41
2023-05-21T05:28:42.765Z,77.31
2023-05-21T05:31:09.577Z,76.61
2023-05-21T05:33:36.361Z,74.73
2023-05-21T05:36:03.066Z,75.17
2023-05-21T05:38:29.793Z,74.09
2023-05-21T05:40:56.626Z,74.23
2023-05-21T05:43:25.488Z,72.79
2023-05-21T05:45:52.514Z,71.68
2023-05-21T05:48:19.325Z,70.59
2023-05-21T05:50:46.580Z,70.12
2023-05-21T05:53:13.449Z,69.74
2023-05-21T05:55:40.629Z,69.47
2023-05-21T05:58:07.453Z,68.72
2023-05-21T06:00:34.212Z,68.67
2023-05-21T06:03:01.030Z,68.18
2023-05-21T06:05:27.924Z,67.03
2023-05-21T06:07:54.653Z,67.80
2023-05-21T06:10:21.405Z,65.48
2023-05-21T06:12:48.186Z,64.70
2023-05-21T06:15:19.463Z,53.31
2023-05-21T06:17:46.291Z,53.22
2023-05-21T06:20:13.388Z,55.14
2023-05-21T06:22:40.180Z,52.77
2023-05-21T06:25:08.320Z,54.26
2023-05-21T06:27:35.364Z,53.52
2023-05-21T06:30:02.099Z,54.97
2023-05-21T06:32:28.955Z,50.20
2023-05-21T06:34:55.871Z,55.01
2023-05-21T06:37:23.808Z,55.48
2023-05-21T06:39:53.158Z,51.90
2023-05-21T06:42:19.949Z,56.70
2023-05-21T06:44:46.706Z,53.54
2023-05-21T06:47:13.487Z,51.88
2023-05-21T06:49:40.205Z,53.73
2023-05-21T06:52:07.128Z,50.69
2023-05-21T06:54:34.797Z,51.08
2023-05-21T06:57:01.756Z,52.93
2023-05-21T06:59:28.617Z,48.16
2023-05-21T07:01:55.449Z,51.30
2023-05-21T07:04:22.304Z,49.78
2023-05-21T07:06:49.067Z,51.29
2023-05-21T07:09:16.034Z,48.63
2023-05-21T07:11:43.420Z,48.51
2023-05-21T07:14:10.264Z,44.60
2023-05-21T07:16:37.131Z,49.55
2023-05-21T07:19:03.949Z,45.27
2023-05-21T07:21:30.731Z,45.16
2023-05-21T07:23:57.463Z,41.89
2023-05-21T07:26:24.250Z,41.01
2023-05-21T07:28:51.022Z,44.72
2023-05-21T07:31:17.833Z,43.58
2023-05-21T07:33:44.602Z,39.89
2023-05-21T07:36:11.333Z,39.88
2023-05-21T07:38:40.174Z,39.03
2023-05-21T07:41:06.946Z,41.34
2023-05-21T07:43:33.664Z,38.23
2023-05-21T07:46:00.516Z,38.49
2023-05-21T07:48:27.285Z,37.72
2023-05-21T07:50:54.019Z,35.72
2023-05-21T07:53:20.768Z,33.53
2023-05-21T07:55:47.978Z,32.81
2023-05-21T07:58:17.223Z,34.34
2023-05-21T08:00:45.155Z,33.88
2023-05-21T08:03:12.028Z,33.65
2023-05-21T08:05:39.280Z,34.95
2023-05-21T08:08:06.718Z,31.83
2023-05-21T08:10:33.538Z,31.62
2023-05-21T08:13:00.355Z,31.00
2023-05-21T08:15:27.129Z,30.95
2023-05-21T08:17:53.976Z,30.84
2023-05-21T08:20:21.371Z,30.81
2023-05-21T08:22:48.398Z,30.14
2023-05-21T08:25:15.190Z,30.83
2023-05-21T08:27:42.796Z,28.06
2023-05-21T08:30:11.643Z,27.88
2023-05-21T08:32:38.407Z,28.98
2023-05-21T08:35:06.052Z,28.83
2023-05-21T08:37:32.867Z,28.17
2023-05-21T08:39:59.601Z,28.29
2023-05-21T08:42:45.745Z,27.64
2023-05-21T08:45:16.870Z,28.19
2023-05-21T08:47:44.369Z,27.27
2023-05-21T08:50:13.323Z,26.85
2023-05-21T08:52:40.981Z,28.05
2023-05-21T08:55:08.817Z,25.19
2023-05-21T08:57:35.817Z,25.69
2023-05-21T09:00:02.738Z,24.24
2023-05-21T09:02:30.837Z,25.30
2023-05-21T09:04:59.285Z,26.92
2023-05-21T09:07:31.195Z,28.01
2023-05-21T09:10:00.849Z,27.30
2023-05-21T09:12:27.754Z,26.21
2023-05-21T09:14:54.632Z,27.53
2023-05-21T09:17:29.293Z,26.44
2023-05-21T09:20:16.311Z,26.80
2023-05-21T09:22:44.402Z,26.82
2023-05-21T09:25:14.571Z,26.65
2023-05-21T09:27:41.570Z,26.22
2023-05-21T09:30:12.670Z,25.17
2023-05-21T09:32:40.141Z,26.58
2023-05-21T09:35:14.237Z,26.33
2023-05-21T09:37:45.206Z,26.43
2023-05-21T09:40:12.927Z,26.10
2023-05-21T09:42:40.508Z,27.06
2023-05-21T09:45:10.643Z,26.95
2023-05-21T09:47:44.234Z,26.75
2023-05-21T09:50:12.267Z,28.08
2023-05-21T09:52:41.879Z,27.27
2023-05-21T09:55:12.744Z,29.11
2023-05-21T09:57:43.666Z,29.37
2023-05-21T10:00:17.767Z,31.20
2023-05-21T10:02:54.302Z,31.75
2023-05-21T10:05:21.265Z,34.47
2023-05-21T10:07:51.938Z,32.06
2023-05-21T10:10:20.572Z,32.82
2023-05-21T10:12:50.248Z,31.83
2023-05-21T10:15:17.658Z,30.49
2023-05-21T10:17:44.746Z,33.58
2023-05-21T10:20:12.592Z,31.07
2023-05-21T10:22:39.963Z,30.16
2023-05-21T10:25:10.134Z,29.25
2023-05-21T10:27:37.475Z,28.38
2023-05-21T10:30:05.896Z,29.07
2023-05-21T10:32:32.939Z,30.16
2023-05-21T10:35:01.771Z,30.33
2023-05-21T10:37:29.028Z,28.53
2023-05-21T10:39:56.080Z,29.61
2023-05-21T10:42:34.965Z,29.49
2023-05-21T10:45:23.153Z,29.88
2023-05-21T10:48:08.787Z,30.82
2023-05-21T10:50:50.005Z,31.88
2023-05-21T10:53:41.711Z,28.13
2023-05-21T10:56:18.079Z,28.10
2023-05-21T10:59:10.103Z,28.41
2023-05-21T11:01:37.950Z,27.54
2023-05-21T11:04:05.985Z,28.87
2023-05-21T11:06:32.895Z,25.60
2023-05-21T11:09:15.560Z,28.02
2023-05-21T11:11:44.269Z,28.32
2023-05-21T11:14:36.777Z,29.33
2023-05-21T11:17:13.963Z,28.09
2023-05-21T11:19:51.544Z,27.90
2023-05-21T11:22:22.285Z,29.61
2023-05-21T11:24:51.526Z,27.94
2023-05-21T11:27:39.205Z,26.49
2023-05-21T11:30:16.205Z,27.21
2023-05-21T11:33:07.984Z,28.58
2023-05-21T11:35:50.067Z,28.60
2023-05-21T11:38:17.832Z,28.83
2023-05-21T11:40:54.769Z,25.04
2023-05-21T11:43:21.552Z,27.58
2023-05-21T11:45:48.335Z,27.54
2023-05-21T11:48:15.076Z,29.49
2023-05-21T11:50:42.612Z,26.30
2023-05-21T11:53:09.393Z,26.60
2023-05-21T11:55:47.513Z,26.75
2023-05-21T11:58:15.115Z,26.97
2023-05-21T12:00:41.902Z,26.26
2023-05-21T12:03:12.957Z,27.13
2023-05-21T12:05:47.049Z,25.30
2023-05-21T12:08:13.852Z,26.73
2023-05-21T12:10:40.685Z,25.20
2023-05-21T12:13:07.431Z,25.87
2023-05-21T12:15:34.207Z,27.04
2023-05-21T12:18:01.308Z,26.09
2023-05-21T12:20:28.874Z,25.75
2023-05-21T12:22:57.196Z,29.38
2023-05-21T12:25:23.998Z,26.03
2023-05-21T12:27:58.805Z,26.80
2023-05-21T12:30:26.315Z,25.17
2023-05-21T12:32:53.251Z,25.45
2023-05-21T12:35:24.279Z,27.27
2023-05-21T12:37:51.617Z,28.73
2023-05-21T12:40:18.621Z,26.45
2023-05-21T12:42:45.559Z,27.42
2023-05-21T12:45:12.789Z,27.46
2023-05-21T12:47:39.524Z,27.35
2023-05-21T12:50:11.905Z,26.58
2023-05-21T12:52:40.491Z,26.55
2023-05-21T12:55:09.585Z,27.06
2023-05-21T12:57:38.601Z,27.67
2023-05-21T13:00:07.068Z,25.99
2023-05-21T13:02:40.809Z,26.34
2023-05-21T13:05:08.946Z,25.12
2023-05-21T13:07:37.737Z,26.50
2023-05-21T13:10:05.015Z,26.26
2023-05-21T13:12:32.544Z,25.80
2023-05-21T13:15:00.981Z,26.10
2023-05-21T13:17:27.961Z,25.86
2023-05-21T13:20:14.897Z,25.40
2023-05-21T13:22:43.627Z,28.00
2023-05-21T13:25:11.409Z,27.32
2023-05-21T13:27:39.133Z,26.15
2023-05-21T13:30:06.843Z,27.94
2023-05-21T13:32:33.781Z,25.65
2023-05-21T13:35:00.681Z,28.18
2023-05-21T13:37:27.573Z,25.25
2023-05-21T13:39:54.333Z,25.34
2023-05-21T13:42:21.309Z,25.66
2023-05-21T13:44:48.404Z,26.73
2023-05-21T13:47:15.279Z,27.13
2023-05-21T13:49:42.090Z,27.61
2023-05-21T13:52:09.342Z,26.72
2023-05-21T13:54:36.341Z,26.92
2023-05-21T13:57:03.193Z,26.89
2023-05-21T13:59:32.584Z,28.39
2023-05-21T14:02:00.536Z,27.29
2023-05-21T14:04:27.359Z,25.61
2023-05-21T14:06:54.119Z,26.51
2023-05-21T14:09:21.484Z,26.81
2023-05-21T14:11:48.283Z,26.84
2023-05-21T14:14:19.056Z,27.19
2023-05-21T14:16:49.481Z,28.40
2023-05-21T14:19:16.699Z,27.22
2023-05-21T14:21:43.666Z,30.59
2023-05-21T14:24:10.435Z,29.26
2023-05-21T14:26:40.998Z,30.10
2023-05-21T14:29:07.898Z,28.17
2023-05-21T14:31:34.750Z,29.91
2023-05-21T14:34:02.989Z,30.42
2023-05-21T14:36:30.081Z,31.31
2023-05-21T14:38:56.943Z,30.47
2023-05-21T14:41:27.716Z,29.15
2023-05-21T14:43:54.794Z,29.66
2023-05-21T14:46:22.022Z,28.56
2023-05-21T14:48:48.929Z,30.74
2023-05-21T14:51:15.719Z,31.32
2023-05-21T14:53:42.511Z,29.57
2023-05-21T14:56:09.267Z,31.37
2023-05-21T14:58:36.134Z,31.54
2023-05-21T15:01:04.365Z,32.33
2023-05-21T15:03:31.423Z,30.54
2023-05-21T15:05:58.736Z,30.29
2023-05-21T15:08:25.582Z,30.65
2023-05-21T15:10:52.462Z,32.07
2023-05-21T15:13:19.317Z,32.51
2023-05-21T15:15:46.173Z,33.43
2023-05-21T15:18:13.114Z,32.15
2023-05-21T15:20:39.881Z,34.80
2023-05-21T15:23:16.943Z,31.71
2023-05-21T15:25:44.696Z,30.93
2023-05-21T15:28:12.471Z,31.76
2023-05-21T15:30:39.526Z,32.08
2023-05-21T15:33:06.637Z,31.29
2023-05-21T15:35:36.192Z,33.39
2023-05-21T15:38:03.473Z,35.10
2023-05-21T15:40:30.227Z,34.99
2023-05-21T15:42:57.077Z,35.39
2023-05-21T15:45:24.824Z,35.92
2023-05-21T15:47:51.629Z,36.12
2023-05-21T15:50:18.382Z,35.70
2023-05-21T15:52:45.243Z,37.81
2023-05-21T15:55:12.084Z,38.17
2023-05-21T15:57:38.893Z,37.00
2023-05-21T16:00:06.435Z,40.10
2023-05-21T16:02:33.219Z,36.09
2023-05-21T16:05:00.129Z,38.44
2023-05-21T16:07:26.955Z,37.35
2023-05-21T16:09:53.830Z,38.86
2023-05-21T16:12:21.022Z,35.44
2023-05-21T16:14:49.957Z,35.78
2023-05-21T16:17:17.266Z,36.69
2023-05-21T16:19:44.075Z,37.30
2023-05-21T16:22:11.122Z,36.81
2023-05-21T16:24:38.061Z,36.50
2023-05-21T16:27:05.112Z,36.11
2023-05-21T16:29:32.182Z,37.92
2023-05-21T16:31:59.046Z,36.43
2023-05-21T16:34:25.919Z,37.28
2023-05-21T16:36:52.802Z,37.94
2023-05-21T16:39:19.605Z,39.74
2023-05-21T16:41:46.420Z,39.61
2023-05-21T16:44:14.080Z,40.59
2023-05-21T16:46:40.918Z,40.37
2023-05-21T16:49:07.756Z,40.73
2023-05-21T16:51:34.541Z,41.69
2023-05-21T16:54:02.939Z,44.69
2023-05-21T16:56:29.803Z,43.86
2023-05-21T16:58:56.596Z,42.54
2023-05-21T17:01:23.465Z,44.03
2023-05-21T17:03:50.687Z,42.80
2023-05-21T17:06:17.742Z,43.75
2023-05-21T17:08:44.576Z,40.18
2023-05-21T17:11:11.369Z,41.65
2023-05-21T17:13:38.198Z,42.28
2023-05-21T17:16:05.154Z,43.20
2023-05-21T17:18:31.989Z,44.03
2023-05-21T17:20:59.141Z,45.49
2023-05-21T17:23:26.043Z,44.04
2023-05-21T17:25:52.866Z,45.01
2023-05-21T17:28:19.718Z,47.75
2023-05-21T17:30:48.672Z,47.57
2023-05-21T17:33:16.297Z,47.76
2023-05-21T17:35:43.321Z,45.85
2023-05-21T17:38:10.441Z,45.46
2023-05-21T17:40:37.369Z,47.26
2023-05-21T17:43:05.190Z,47.78
2023-05-21T17:45:32.288Z,49.19
2023-05-21T17:48:00.442Z,50.53
2023-05-21T17:50:27.885Z,50.42
2023-05-21T17:52:54.817Z,52.93
2023-05-21T17:55:21.664Z,52.66
2023-05-21T17:57:48.488Z,54.98
2023-05-21T18:00:15.516Z,58.49
2023-05-21T18:02:42.393Z,56.39
2023-05-21T18:05:09.338Z,56.85
2023-05-21T18:07:37.101Z,60.25
2023-05-21T18:10:04.184Z,63.83
2023-05-21T18:12:31.036Z,62.09
2023-05-21T18:14:57.844Z,62.54
2023-05-21T18:17:24.660Z,62.07
2023-05-21T18:19:51.500Z,60.72
2023-05-21T18:22:18.291Z,62.99
2023-05-21T18:24:46.281Z,60.63
2023-05-21T18:27:13.629Z,59.78
2023-05-21T18:29:40.473Z,59.78
2023-05-21T18:32:07.725Z,60.43
2023-05-21T18:34:34.659Z,62.20
2023-05-21T18:37:01.433Z,61.82
2023-05-21T18:39:28.368Z,62.32
2023-05-21T18:42:11.480Z,64.94
2023-05-21T18:44:39.474Z,64.31
2023-05-21T18:47:07.746Z,63.31
2023-05-21T18:49:36.129Z,64.35
2023-05-21T18:52:03.976Z,65.45
2023-05-21T18:54:31.237Z,69.76
2023-05-21T18:57:00.387Z,71.25
2023-05-21T18:59:29.119Z,71.04
2023-05-21T19:01:55.980Z,73.62
2023-05-21T19:04:22.910Z,76.75
2023-05-21T19:06:49.786Z,74.50
2023-05-21T19:09:16.719Z,78.04
2023-05-21T19:11:43.420Z,75.80
2023-05-21T19:14:10.268Z,77.03
2023-05-21T19:16:37.121Z,77.72
2023-05-21T19:19:04.343Z,80.39
2023-05-21T19:21:31.596Z,79.81
2023-05-21T19:23:58.531Z,81.20
2023-05-21T19:26:25.469Z,82.70
2023-05-21T19:28:54.380Z,83.57
2023-05-21T19:31:21.902Z,83.67
2023-05-21T19:33:48.892Z,85.51
2023-05-21T19:36:15.971Z,86.77
2023-05-21T19:38:49.425Z,90.03
2023-05-21T19:41:19.873Z,89.48
2023-05-21T19:43:46.870Z,91.26
2023-05-21T19:46:17.229Z,91.64
2023-05-21T19:48:45.944Z,89.61
2023-05-21T19:51:13.162Z,88.82
2023-05-21T19:53:39.897Z,89.09
2023-05-21T19:56:06.968Z,90.45
2023-05-21T19:58:33.785Z,91.75
2023-05-21T20:01:00.622Z,87.03
2023-05-21T20:03:28.569Z,87.65
2023-05-21T20:05:55.605Z,86.10
2023-05-21T20:08:22.825Z,84.61
2023-05-21T20:10:52.008Z,84.16
2023-05-21T20:13:19.450Z,86.41
2023-05-21T20:15:47.912Z,88.89
2023-05-21T20:18:15.550Z,88.91
2023-05-21T20:20:42.901Z,88.92
2023-05-21T20:23:09.777Z,88.11
2023-05-21T20:25:36.565Z,90.46
2023-05-21T20:28:04.178Z,90.98
2023-05-21T20:30:34.873Z,92.00
2023-05-21T20:33:02.806Z,92.77
2023-05-21T20:35:29.949Z,92.16
2023-05-21T20:37:56.727Z,94.39
2023-05-21T20:40:23.619Z,94.95
2023-05-21T20:42:53.591Z,93.13
2023-05-21T20:45:21.265Z,95.02
2023-05-21T20:47:49.959Z,94.86
2023-05-21T20:50:17.926Z,95.44
2023-05-21T20:52:47.229Z,96.83
2023-05-21T20:55:14.855Z,98.10
2023-05-21T20:57:42.336Z,97.21
2023-05-21T21:00:12.830Z,95.14
2023-05-21T21:02:39.794Z,96.14
2023-05-21T21:05:10.708Z,95.27
2023-05-21T21:07:37.622Z,95.45
2023-05-21T21:10:04.799Z,96.99
2023-05-21T21:12:31.589Z,94.57
2023-05-21T21:14:58.368Z,96.42
2023-05-21T21:17:25.154Z,97.36
2023-05-21T21:19:51.866Z,96.59
2023-05-21T21:22:18.736Z,97.93
2023-05-21T21:24:45.859Z,98.47
2023-05-21T21:27:12.714Z,99.07
2023-05-21T21:29:39.795Z,99.19
2023-05-21T21:32:07.038Z,100.00
2023-05-21T21:34:33.787Z,100.00
2023-05-21T21:37:00.535Z,100.00
2023-05-21T21:39:27.298Z,100.00
2023-05-21T21:41:54.115Z,100.00
2023-05-21T21:44:20.994Z,100.00
2023-05-21T21:46:47.768Z,100.00
2023-05-21T21:49:17.241Z,100.00
2023-05-21T21:51:48.451Z,100.00
2023-05-21T21:54:15.231Z,100.00
2023-05-21T21:56:41.985Z,100.00
2023-05-21T21:59:08.794Z,100.00
2023-05-21T22:01:36.033Z,100.00
2023-05-21T22:04:02.960Z,100.00
2023-05-21T22:06:30.002Z,100.00
2023-05-21T22:08:56.805Z,100.00
2023-05-21T22:11:23.651Z,100.00
2023-05-21T22:13:50.418Z,100.00
2023-05-21T22:16:17.178Z,100.00
2023-05-21T22:18:44.013Z,100.00
2023-05-21T22:21:14.429Z,100.00
2023-05-21T22:23:41.421Z,100.00
2023-05-21T22:26:09.158Z,100.00
2023-05-21T22:28:36.417Z,100.00
2023-05-21T22:31:03.333Z,100.00
2023-05-21T22:33:30.382Z,100.00
2023-05-21T22:35:57.220Z,100.00
2023-05-21T22:38:24.788Z,100.00
2023-05-21T22:40:51.553Z,100.00
2023-05-21T22:43:18.317Z,100.00
2023-05-21T22:45:45.184Z,100.00
2023-05-21T22:48:12.009Z,100.00
2023-05-21T22:50:39.147Z,100.00
2023-05-21T22:53:06.677Z,100.00
2023-05-21T22:55:33.479Z,100.00
2023-05-21T22:58:00.300Z,100.00
2023-05-21T23:00:27.257Z,100.00
2023-05-21T23:02:54.754Z,100.00
2023-05-21T23:05:22.220Z,100.00
2023-05-21T23:07:49.321Z,100.00
2023-05-21T23:10:16.138Z,100.00
2023-05-21T23:12:42.963Z,100.00
2023-05-21T23:15:10.843Z,100.00
2023-05-21T23:17:38.225Z,100.00
2023-05-21T23:20:07.409Z,100.00
2023-05-21T23:22:34.755Z,100.00
2023-05-21T23:25:01.642Z,100.00
2023-05-21T23:27:28.764Z,100.00
2023-05-21T23:29:55.790Z,100.00
2023-05-21T23:32:23.494Z,100.00
2023-05-21T23:34:50.874Z,100.00
2023-05-21T23:37:17.835Z,100.00
2023-05-21T23:39:48.248Z,100.00
2023-05-21T23:42:18.541Z,100.00
2023-05-21T23:44:45.347Z,100.00
2023-05-21T23:47:12.207Z,100.00
2023-05-21T23:49:39.378Z,100.00
2023-05-21T23:52:06.701Z,100.00
2023-05-21T23:54:33.509Z,100.00
2023-05-21T23:57:00.342Z,100.00
2023-05-21T23:59:27.092Z,100.00
